sensor_id;sensor_type;location;lat;lon;timestamp;P1;durP1;ratioP1;P2;durP2;ratioP2
18806;SDS011;9531;52.030;4.380;2022-09-21T00:01:10;101.38;;;82.68;;
18806;SDS011;9531;52.030;4.380;2022-09-21T00:03:44;95.03;;;81.18;;
18806;SDS011;9531;52.030;4.380;2022-09-21T00:06:13;87.07;;;70.75;;
18806;SDS011;9531;52.030;4.380;2022-09-21T00:08:46;96.20;;;78.72;;
18806;SDS011;9531;52.030;4.380;2022-09-21T00:11:15;97.28;;;86.60;;
18806;SDS011;9531;52.030;4.380;2022-09-21T00:13:44;108.20;;;96.40;;
18806;SDS011;9531;52.030;4.380;2022-09-21T00:16:13;114.60;;;101.70;;
18806;SDS011;9531;52.030;4.380;2022-09-21T00:18:42;118.13;;;105.10;;
18806;SDS011;9531;52.030;4.380;2022-09-21T00:21:12;129.15;;;115.05;;
18806;SDS011;9531;52.030;4.380;2022-09-21T00:23:43;140.35;;;125.15;;
18806;SDS011;9531;52.030;4.380;2022-09-21T00:26:13;154.77;;;133.40;;
18806;SDS011;9531;52.030;4.380;2022-09-21T00:28:43;163.93;;;140.23;;
18806;SDS011;9531;52.030;4.380;2022-09-21T00:31:11;201.45;;;156.90;;
18806;SDS011;9531;52.030;4.380;2022-09-21T00:33:43;263.77;;;160.35;;
18806;SDS011;9531;52.030;4.380;2022-09-21T00:36:11;270.55;;;160.27;;
18806;SDS011;9531;52.030;4.380;2022-09-21T00:38:48;207.90;;;152.70;;
18806;SDS011;9531;52.030;4.380;2022-09-21T00:41:18;122.35;;;109.18;;
18806;SDS011;9531;52.030;4.380;2022-09-21T00:43:46;140.73;;;125.18;;
18806;SDS011;9531;52.030;4.380;2022-09-21T00:46:15;203.73;;;148.02;;
18806;SDS011;9531;52.030;4.380;2022-09-21T00:48:49;101.43;;;87.80;;
18806;SDS011;9531;52.030;4.380;2022-09-21T00:51:18;106.95;;;95.18;;
18806;SDS011;9531;52.030;4.380;2022-09-21T00:53:56;204.40;;;150.18;;
18806;SDS011;9531;52.030;4.380;2022-09-21T00:56:32;82.10;;;70.07;;
18806;SDS011;9531;52.030;4.380;2022-09-21T00:59:00;130.77;;;115.70;;
18806;SDS011;9531;52.030;4.380;2022-09-21T01:01:32;204.82;;;158.98;;
18806;SDS011;9531;52.030;4.380;2022-09-21T01:04:00;161.65;;;143.60;;
18806;SDS011;9531;52.030;4.380;2022-09-21T01:06:30;205.18;;;160.65;;
18806;SDS011;9531;52.030;4.380;2022-09-21T01:09:00;187.50;;;156.20;;
18806;SDS011;9531;52.030;4.380;2022-09-21T01:11:28;212.13;;;168.82;;
18806;SDS011;9531;52.030;4.380;2022-09-21T01:14:14;260.77;;;173.57;;
18806;SDS011;9531;52.030;4.380;2022-09-21T01:16:59;258.02;;;172.82;;
18806;SDS011;9531;52.030;4.380;2022-09-21T01:19:39;305.92;;;184.30;;
18806;SDS011;9531;52.030;4.380;2022-09-21T01:22:25;180.23;;;152.80;;
18806;SDS011;9531;52.030;4.380;2022-09-21T01:25:05;151.13;;;134.88;;
18806;SDS011;9531;52.030;4.380;2022-09-21T01:30:39;165.63;;;145.40;;
18806;SDS011;9531;52.030;4.380;2022-09-21T01:33:12;161.45;;;143.73;;
18806;SDS011;9531;52.030;4.380;2022-09-21T01:35:44;150.20;;;133.80;;
18806;SDS011;9531;52.030;4.380;2022-09-21T01:38:20;161.88;;;142.75;;
18806;SDS011;9531;52.030;4.380;2022-09-21T01:40:53;126.63;;;109.18;;
18806;SDS011;9531;52.030;4.380;2022-09-21T01:43:28;185.00;;;154.43;;
18806;SDS011;9531;52.030;4.380;2022-09-21T01:45:59;270.95;;;178.65;;
18806;SDS011;9531;52.030;4.380;2022-09-21T01:48:28;107.50;;;95.55;;
18806;SDS011;9531;52.030;4.380;2022-09-21T01:50:59;100.57;;;86.82;;
18806;SDS011;9531;52.030;4.380;2022-09-21T01:53:30;105.38;;;92.90;;
18806;SDS011;9531;52.030;4.380;2022-09-21T01:56:06;93.38;;;81.85;;
18806;SDS011;9531;52.030;4.380;2022-09-21T01:58:40;66.95;;;53.20;;
18806;SDS011;9531;52.030;4.380;2022-09-21T02:01:14;84.35;;;71.15;;
18806;SDS011;9531;52.030;4.380;2022-09-21T02:03:46;98.15;;;87.80;;
18806;SDS011;9531;52.030;4.380;2022-09-21T02:06:16;120.82;;;103.45;;
18806;SDS011;9531;52.030;4.380;2022-09-21T02:08:44;166.18;;;125.50;;
18806;SDS011;9531;52.030;4.380;2022-09-21T02:11:12;82.38;;;64.93;;
18806;SDS011;9531;52.030;4.380;2022-09-21T02:13:41;97.47;;;85.05;;
18806;SDS011;9531;52.030;4.380;2022-09-21T02:16:27;156.23;;;116.43;;
18806;SDS011;9531;52.030;4.380;2022-09-21T02:19:07;63.83;;;46.22;;
18806;SDS011;9531;52.030;4.380;2022-09-21T02:21:39;85.47;;;67.18;;
18806;SDS011;9531;52.030;4.380;2022-09-21T02:24:19;89.60;;;73.75;;
18806;SDS011;9531;52.030;4.380;2022-09-21T02:26:52;80.90;;;64.75;;
18806;SDS011;9531;52.030;4.380;2022-09-21T02:29:26;88.65;;;77.50;;
18806;SDS011;9531;52.030;4.380;2022-09-21T02:32:00;89.13;;;77.00;;
18806;SDS011;9531;52.030;4.380;2022-09-21T02:34:32;126.40;;;107.25;;
18806;SDS011;9531;52.030;4.380;2022-09-21T02:37:06;192.95;;;137.32;;
18806;SDS011;9531;52.030;4.380;2022-09-21T02:39:44;208.32;;;138.80;;
18806;SDS011;9531;52.030;4.380;2022-09-21T02:42:17;154.35;;;125.30;;
18806;SDS011;9531;52.030;4.380;2022-09-21T02:44:51;147.50;;;123.60;;
18806;SDS011;9531;52.030;4.380;2022-09-21T02:47:26;115.75;;;103.20;;
18806;SDS011;9531;52.030;4.380;2022-09-21T02:50:02;109.35;;;97.60;;
18806;SDS011;9531;52.030;4.380;2022-09-21T02:52:31;100.50;;;89.45;;
18806;SDS011;9531;52.030;4.380;2022-09-21T02:55:01;138.15;;;118.03;;
18806;SDS011;9531;52.030;4.380;2022-09-21T02:57:30;215.23;;;142.48;;
18806;SDS011;9531;52.030;4.380;2022-09-21T02:59:58;163.40;;;136.27;;
18806;SDS011;9531;52.030;4.380;2022-09-21T03:02:35;133.50;;;118.70;;
18806;SDS011;9531;52.030;4.380;2022-09-21T03:05:04;86.90;;;77.32;;
18806;SDS011;9531;52.030;4.380;2022-09-21T03:07:33;88.40;;;75.55;;
18806;SDS011;9531;52.030;4.380;2022-09-21T03:10:01;74.78;;;61.50;;
18806;SDS011;9531;52.030;4.380;2022-09-21T03:12:29;76.78;;;57.97;;
18806;SDS011;9531;52.030;4.380;2022-09-21T03:14:57;77.03;;;58.35;;
18806;SDS011;9531;52.030;4.380;2022-09-21T03:17:25;88.82;;;69.05;;
18806;SDS011;9531;52.030;4.380;2022-09-21T03:19:55;86.78;;;67.22;;
18806;SDS011;9531;52.030;4.380;2022-09-21T03:22:23;92.65;;;77.88;;
18806;SDS011;9531;52.030;4.380;2022-09-21T03:24:53;80.20;;;63.45;;
18806;SDS011;9531;52.030;4.380;2022-09-21T03:27:21;69.97;;;54.20;;
18806;SDS011;9531;52.030;4.380;2022-09-21T03:29:51;19.77;;;12.80;;
18806;SDS011;9531;52.030;4.380;2022-09-21T03:32:18;58.28;;;39.13;;
18806;SDS011;9531;52.030;4.380;2022-09-21T03:34:45;82.93;;;66.43;;
18806;SDS011;9531;52.030;4.380;2022-09-21T03:37:14;138.35;;;120.15;;
18806;SDS011;9531;52.030;4.380;2022-09-21T03:39:41;110.47;;;98.45;;
18806;SDS011;9531;52.030;4.380;2022-09-21T03:42:11;93.80;;;83.70;;
18806;SDS011;9531;52.030;4.380;2022-09-21T03:44:39;101.75;;;90.63;;
18806;SDS011;9531;52.030;4.380;2022-09-21T03:47:12;98.63;;;85.75;;
18806;SDS011;9531;52.030;4.380;2022-09-21T03:49:39;122.63;;;107.45;;
18806;SDS011;9531;52.030;4.380;2022-09-21T03:52:06;91.75;;;81.35;;
18806;SDS011;9531;52.030;4.380;2022-09-21T03:54:34;88.88;;;76.90;;
18806;SDS011;9531;52.030;4.380;2022-09-21T03:57:01;90.25;;;76.18;;
18806;SDS011;9531;52.030;4.380;2022-09-21T03:59:35;84.97;;;71.80;;
18806;SDS011;9531;52.030;4.380;2022-09-21T04:02:01;72.15;;;58.72;;
18806;SDS011;9531;52.030;4.380;2022-09-21T04:04:29;78.95;;;65.78;;
18806;SDS011;9531;52.030;4.380;2022-09-21T04:06:57;90.68;;;79.47;;
18806;SDS011;9531;52.030;4.380;2022-09-21T04:09:24;72.90;;;59.72;;
18806;SDS011;9531;52.030;4.380;2022-09-21T04:11:52;62.50;;;49.42;;
18806;SDS011;9531;52.030;4.380;2022-09-21T04:14:19;68.22;;;53.97;;
18806;SDS011;9531;52.030;4.380;2022-09-21T04:16:47;73.80;;;60.03;;
18806;SDS011;9531;52.030;4.380;2022-09-21T04:19:16;45.50;;;33.08;;
18806;SDS011;9531;52.030;4.380;2022-09-21T04:21:44;46.17;;;33.30;;
18806;SDS011;9531;52.030;4.380;2022-09-21T04:24:11;42.55;;;28.85;;
18806;SDS011;9531;52.030;4.380;2022-09-21T04:26:38;33.65;;;23.85;;
18806;SDS011;9531;52.030;4.380;2022-09-21T04:29:07;33.80;;;23.30;;
18806;SDS011;9531;52.030;4.380;2022-09-21T04:31:36;38.58;;;25.38;;
18806;SDS011;9531;52.030;4.380;2022-09-21T04:34:03;29.35;;;20.88;;
18806;SDS011;9531;52.030;4.380;2022-09-21T04:36:31;33.72;;;22.95;;
18806;SDS011;9531;52.030;4.380;2022-09-21T04:38:59;40.00;;;29.67;;
18806;SDS011;9531;52.030;4.380;2022-09-21T04:41:28;39.88;;;27.20;;
18806;SDS011;9531;52.030;4.380;2022-09-21T04:43:55;42.80;;;30.90;;
18806;SDS011;9531;52.030;4.380;2022-09-21T04:46:25;46.72;;;32.92;;
18806;SDS011;9531;52.030;4.380;2022-09-21T04:48:58;46.90;;;34.25;;
18806;SDS011;9531;52.030;4.380;2022-09-21T04:51:27;33.28;;;23.98;;
18806;SDS011;9531;52.030;4.380;2022-09-21T04:53:55;49.38;;;35.92;;
18806;SDS011;9531;52.030;4.380;2022-09-21T04:56:23;51.42;;;39.05;;
18806;SDS011;9531;52.030;4.380;2022-09-21T04:58:50;32.55;;;23.90;;
18806;SDS011;9531;52.030;4.380;2022-09-21T05:01:17;41.28;;;31.38;;
18806;SDS011;9531;52.030;4.380;2022-09-21T05:03:45;70.25;;;62.15;;
18806;SDS011;9531;52.030;4.380;2022-09-21T05:06:12;45.40;;;34.90;;
18806;SDS011;9531;52.030;4.380;2022-09-21T05:08:39;45.28;;;35.28;;
18806;SDS011;9531;52.030;4.380;2022-09-21T05:11:33;63.08;;;52.40;;
18806;SDS011;9531;52.030;4.380;2022-09-21T05:14:01;39.33;;;28.88;;
18806;SDS011;9531;52.030;4.380;2022-09-21T05:16:29;41.90;;;31.70;;
18806;SDS011;9531;52.030;4.380;2022-09-21T05:18:57;38.47;;;24.13;;
18806;SDS011;9531;52.030;4.380;2022-09-21T05:21:27;35.72;;;23.10;;
18806;SDS011;9531;52.030;4.380;2022-09-21T05:23:55;28.85;;;19.48;;
18806;SDS011;9531;52.030;4.380;2022-09-21T05:26:24;28.65;;;17.77;;
18806;SDS011;9531;52.030;4.380;2022-09-21T05:28:52;28.15;;;17.40;;
18806;SDS011;9531;52.030;4.380;2022-09-21T05:31:26;30.02;;;20.23;;
18806;SDS011;9531;52.030;4.380;2022-09-21T05:34:04;33.95;;;21.60;;
18806;SDS011;9531;52.030;4.380;2022-09-21T05:36:40;29.00;;;20.27;;
18806;SDS011;9531;52.030;4.380;2022-09-21T05:39:13;26.60;;;17.55;;
18806;SDS011;9531;52.030;4.380;2022-09-21T05:41:41;28.05;;;17.58;;
18806;SDS011;9531;52.030;4.380;2022-09-21T05:44:09;31.52;;;20.02;;
18806;SDS011;9531;52.030;4.380;2022-09-21T05:46:40;18.60;;;11.18;;
18806;SDS011;9531;52.030;4.380;2022-09-21T05:49:16;19.88;;;11.13;;
18806;SDS011;9531;52.030;4.380;2022-09-21T05:51:48;23.35;;;13.98;;
18806;SDS011;9531;52.030;4.380;2022-09-21T05:54:25;25.00;;;15.55;;
18806;SDS011;9531;52.030;4.380;2022-09-21T05:57:04;23.73;;;12.93;;
18806;SDS011;9531;52.030;4.380;2022-09-21T05:59:43;27.98;;;18.40;;
18806;SDS011;9531;52.030;4.380;2022-09-21T06:02:22;29.65;;;20.08;;
18806;SDS011;9531;52.030;4.380;2022-09-21T06:05:01;26.67;;;18.67;;
18806;SDS011;9531;52.030;4.380;2022-09-21T06:07:35;40.63;;;29.95;;
18806;SDS011;9531;52.030;4.380;2022-09-21T06:10:04;93.70;;;83.03;;
18806;SDS011;9531;52.030;4.380;2022-09-21T06:12:32;31.25;;;21.90;;
18806;SDS011;9531;52.030;4.380;2022-09-21T06:15:01;40.75;;;27.65;;
18806;SDS011;9531;52.030;4.380;2022-09-21T06:17:33;58.03;;;45.45;;
18806;SDS011;9531;52.030;4.380;2022-09-21T06:20:02;92.80;;;83.07;;
18806;SDS011;9531;52.030;4.380;2022-09-21T06:22:30;34.22;;;23.08;;
18806;SDS011;9531;52.030;4.380;2022-09-21T06:24:58;29.80;;;20.88;;
18806;SDS011;9531;52.030;4.380;2022-09-21T06:27:26;30.13;;;20.17;;
18806;SDS011;9531;52.030;4.380;2022-09-21T06:30:01;26.40;;;18.58;;
18806;SDS011;9531;52.030;4.380;2022-09-21T06:32:28;29.85;;;21.65;;
18806;SDS011;9531;52.030;4.380;2022-09-21T06:34:56;25.75;;;18.60;;
18806;SDS011;9531;52.030;4.380;2022-09-21T06:37:24;28.90;;;19.58;;
18806;SDS011;9531;52.030;4.380;2022-09-21T06:39:51;34.55;;;21.40;;
18806;SDS011;9531;52.030;4.380;2022-09-21T06:42:18;37.17;;;25.13;;
18806;SDS011;9531;52.030;4.380;2022-09-21T06:44:45;44.90;;;30.05;;
18806;SDS011;9531;52.030;4.380;2022-09-21T06:47:12;39.25;;;28.23;;
18806;SDS011;9531;52.030;4.380;2022-09-21T06:49:39;51.10;;;36.42;;
18806;SDS011;9531;52.030;4.380;2022-09-21T06:52:06;55.05;;;40.42;;
18806;SDS011;9531;52.030;4.380;2022-09-21T06:54:40;56.05;;;42.90;;
18806;SDS011;9531;52.030;4.380;2022-09-21T06:57:08;61.47;;;47.95;;
18806;SDS011;9531;52.030;4.380;2022-09-21T06:59:35;73.53;;;52.63;;
18806;SDS011;9531;52.030;4.380;2022-09-21T07:02:02;64.68;;;47.05;;
18806;SDS011;9531;52.030;4.380;2022-09-21T07:04:31;66.03;;;47.13;;
18806;SDS011;9531;52.030;4.380;2022-09-21T07:06:58;79.55;;;60.40;;
18806;SDS011;9531;52.030;4.380;2022-09-21T07:09:25;95.22;;;80.55;;
18806;SDS011;9531;52.030;4.380;2022-09-21T07:11:56;123.45;;;106.50;;
18806;SDS011;9531;52.030;4.380;2022-09-21T07:14:23;108.03;;;96.20;;
18806;SDS011;9531;52.030;4.380;2022-09-21T07:16:51;99.97;;;85.22;;
18806;SDS011;9531;52.030;4.380;2022-09-21T07:19:18;101.70;;;86.40;;
18806;SDS011;9531;52.030;4.380;2022-09-21T07:21:45;101.35;;;83.18;;
18806;SDS011;9531;52.030;4.380;2022-09-21T07:24:12;89.82;;;69.05;;
18806;SDS011;9531;52.030;4.380;2022-09-21T07:26:40;104.85;;;80.72;;
18806;SDS011;9531;52.030;4.380;2022-09-21T07:29:08;110.68;;;87.43;;
18806;SDS011;9531;52.030;4.380;2022-09-21T07:31:35;111.13;;;83.95;;
18806;SDS011;9531;52.030;4.380;2022-09-21T07:34:02;119.95;;;88.40;;
18806;SDS011;9531;52.030;4.380;2022-09-21T07:36:31;132.93;;;101.38;;
18806;SDS011;9531;52.030;4.380;2022-09-21T07:38:58;167.88;;;129.52;;
18806;SDS011;9531;52.030;4.380;2022-09-21T07:41:26;195.77;;;150.20;;
18806;SDS011;9531;52.030;4.380;2022-09-21T07:43:54;240.57;;;190.70;;
18806;SDS011;9531;52.030;4.380;2022-09-21T07:46:22;280.33;;;213.68;;
18806;SDS011;9531;52.030;4.380;2022-09-21T07:48:51;293.40;;;219.95;;
18806;SDS011;9531;52.030;4.380;2022-09-21T07:51:19;297.88;;;215.57;;
18806;SDS011;9531;52.030;4.380;2022-09-21T07:53:46;285.13;;;210.85;;
18806;SDS011;9531;52.030;4.380;2022-09-21T07:56:14;301.42;;;215.90;;
18806;SDS011;9531;52.030;4.380;2022-09-21T07:58:43;304.95;;;216.27;;
18806;SDS011;9531;52.030;4.380;2022-09-21T08:01:29;326.00;;;223.82;;
18806;SDS011;9531;52.030;4.380;2022-09-21T08:03:57;327.00;;;221.07;;
18806;SDS011;9531;52.030;4.380;2022-09-21T08:06:26;302.73;;;207.98;;
18806;SDS011;9531;52.030;4.380;2022-09-21T08:08:56;350.85;;;222.18;;
18806;SDS011;9531;52.030;4.380;2022-09-21T08:11:24;372.02;;;230.80;;
18806;SDS011;9531;52.030;4.380;2022-09-21T08:13:53;380.60;;;227.63;;
18806;SDS011;9531;52.030;4.380;2022-09-21T08:16:24;387.75;;;234.63;;
18806;SDS011;9531;52.030;4.380;2022-09-21T08:18:52;403.40;;;232.98;;
18806;SDS011;9531;52.030;4.380;2022-09-21T08:21:19;399.83;;;235.10;;
18806;SDS011;9531;52.030;4.380;2022-09-21T08:23:47;407.27;;;234.18;;
18806;SDS011;9531;52.030;4.380;2022-09-21T08:26:15;416.15;;;231.80;;
18806;SDS011;9531;52.030;4.380;2022-09-21T08:28:44;395.45;;;223.77;;
18806;SDS011;9531;52.030;4.380;2022-09-21T08:31:15;398.90;;;230.13;;
18806;SDS011;9531;52.030;4.380;2022-09-21T08:33:46;415.88;;;230.02;;
18806;SDS011;9531;52.030;4.380;2022-09-21T08:36:16;428.50;;;234.18;;
18806;SDS011;9531;52.030;4.380;2022-09-21T08:38:43;436.33;;;234.00;;
18806;SDS011;9531;52.030;4.380;2022-09-21T08:41:12;436.35;;;235.43;;
18806;SDS011;9531;52.030;4.380;2022-09-21T08:43:43;441.50;;;233.70;;
18806;SDS011;9531;52.030;4.380;2022-09-21T08:46:14;444.88;;;232.82;;
18806;SDS011;9531;52.030;4.380;2022-09-21T08:48:45;439.50;;;225.48;;
18806;SDS011;9531;52.030;4.380;2022-09-21T08:51:19;443.33;;;228.00;;
18806;SDS011;9531;52.030;4.380;2022-09-21T08:53:48;449.38;;;233.20;;
18806;SDS011;9531;52.030;4.380;2022-09-21T08:56:19;441.65;;;228.07;;
18806;SDS011;9531;52.030;4.380;2022-09-21T08:58:49;439.02;;;221.10;;
18806;SDS011;9531;52.030;4.380;2022-09-21T09:01:22;424.08;;;226.82;;
18806;SDS011;9531;52.030;4.380;2022-09-21T09:06:55;415.48;;;225.85;;
18806;SDS011;9531;52.030;4.380;2022-09-21T09:09:38;421.58;;;226.13;;
18806;SDS011;9531;52.030;4.380;2022-09-21T09:12:21;427.77;;;226.23;;
18806;SDS011;9531;52.030;4.380;2022-09-21T09:15:09;416.70;;;221.55;;
18806;SDS011;9531;52.030;4.380;2022-09-21T09:17:52;420.08;;;219.38;;
18806;SDS011;9531;52.030;4.380;2022-09-21T09:20:28;406.67;;;216.20;;
18806;SDS011;9531;52.030;4.380;2022-09-21T09:23:02;411.88;;;218.52;;
18806;SDS011;9531;52.030;4.380;2022-09-21T09:25:35;412.95;;;216.45;;
18806;SDS011;9531;52.030;4.380;2022-09-21T09:28:16;412.48;;;220.98;;
18806;SDS011;9531;52.030;4.380;2022-09-21T09:30:51;416.55;;;221.90;;
18806;SDS011;9531;52.030;4.380;2022-09-21T09:33:25;416.67;;;220.07;;
18806;SDS011;9531;52.030;4.380;2022-09-21T09:35:57;425.25;;;221.55;;
18806;SDS011;9531;52.030;4.380;2022-09-21T09:38:30;418.50;;;211.85;;
18806;SDS011;9531;52.030;4.380;2022-09-21T09:41:09;435.33;;;221.85;;
18806;SDS011;9531;52.030;4.380;2022-09-21T09:43:56;427.60;;;217.25;;
18806;SDS011;9531;52.030;4.380;2022-09-21T09:46:36;431.17;;;218.68;;
18806;SDS011;9531;52.030;4.380;2022-09-21T09:49:18;434.90;;;220.32;;
18806;SDS011;9531;52.030;4.380;2022-09-21T09:51:56;418.75;;;208.63;;
18806;SDS011;9531;52.030;4.380;2022-09-21T09:54:25;483.00;;;228.30;;
18806;SDS011;9531;52.030;4.380;2022-09-21T09:56:53;478.73;;;221.85;;
18806;SDS011;9531;52.030;4.380;2022-09-21T09:59:23;510.65;;;232.20;;
18806;SDS011;9531;52.030;4.380;2022-09-21T10:01:58;445.45;;;218.18;;
18806;SDS011;9531;52.030;4.380;2022-09-21T10:04:27;463.25;;;224.52;;
18806;SDS011;9531;52.030;4.380;2022-09-21T10:06:54;442.95;;;218.98;;
18806;SDS011;9531;52.030;4.380;2022-09-21T10:09:26;436.08;;;221.43;;
18806;SDS011;9531;52.030;4.380;2022-09-21T10:11:55;432.85;;;218.50;;
18806;SDS011;9531;52.030;4.380;2022-09-21T10:14:26;454.05;;;218.50;;
18806;SDS011;9531;52.030;4.380;2022-09-21T10:16:58;435.80;;;212.02;;
18806;SDS011;9531;52.030;4.380;2022-09-21T10:19:30;462.58;;;217.77;;
18806;SDS011;9531;52.030;4.380;2022-09-21T10:21:57;518.72;;;225.00;;
18806;SDS011;9531;52.030;4.380;2022-09-21T10:24:28;514.05;;;231.20;;
18806;SDS011;9531;52.030;4.380;2022-09-21T10:27:02;482.00;;;225.05;;
18806;SDS011;9531;52.030;4.380;2022-09-21T10:29:37;412.52;;;212.43;;
18806;SDS011;9531;52.030;4.380;2022-09-21T10:32:22;409.45;;;205.43;;
18806;SDS011;9531;52.030;4.380;2022-09-21T10:37:42;413.33;;;213.32;;
18806;SDS011;9531;52.030;4.380;2022-09-21T10:40:27;426.13;;;212.18;;
18806;SDS011;9531;52.030;4.380;2022-09-21T10:42:55;426.20;;;210.38;;
18806;SDS011;9531;52.030;4.380;2022-09-21T10:45:25;432.65;;;212.90;;
18806;SDS011;9531;52.030;4.380;2022-09-21T10:47:54;424.90;;;215.18;;
18806;SDS011;9531;52.030;4.380;2022-09-21T10:50:24;426.60;;;205.65;;
18806;SDS011;9531;52.030;4.380;2022-09-21T10:52:55;440.83;;;213.32;;
18806;SDS011;9531;52.030;4.380;2022-09-21T10:55:27;451.55;;;212.43;;
18806;SDS011;9531;52.030;4.380;2022-09-21T10:57:56;448.92;;;209.50;;
18806;SDS011;9531;52.030;4.380;2022-09-21T11:00:31;454.50;;;216.10;;
18806;SDS011;9531;52.030;4.380;2022-09-21T11:06:07;464.65;;;210.82;;
18806;SDS011;9531;52.030;4.380;2022-09-21T11:08:40;440.85;;;207.02;;
18806;SDS011;9531;52.030;4.380;2022-09-21T11:11:19;453.90;;;212.90;;
18806;SDS011;9531;52.030;4.380;2022-09-21T11:14:18;447.38;;;208.10;;
18806;SDS011;9531;52.030;4.380;2022-09-21T11:16:54;452.23;;;217.77;;
18806;SDS011;9531;52.030;4.380;2022-09-21T11:19:27;454.67;;;212.48;;
18806;SDS011;9531;52.030;4.380;2022-09-21T11:22:00;470.73;;;215.93;;
18806;SDS011;9531;52.030;4.380;2022-09-21T11:24:35;506.95;;;215.98;;
18806;SDS011;9531;52.030;4.380;2022-09-21T11:27:11;551.08;;;226.15;;
18806;SDS011;9531;52.030;4.380;2022-09-21T11:29:47;518.75;;;219.00;;
18806;SDS011;9531;52.030;4.380;2022-09-21T11:32:28;515.20;;;223.60;;
18806;SDS011;9531;52.030;4.380;2022-09-21T11:35:23;536.72;;;222.95;;
18806;SDS011;9531;52.030;4.380;2022-09-21T11:38:03;558.88;;;226.50;;
18806;SDS011;9531;52.030;4.380;2022-09-21T11:40:50;556.83;;;226.52;;
18806;SDS011;9531;52.030;4.380;2022-09-21T11:43:33;621.83;;;234.35;;
18806;SDS011;9531;52.030;4.380;2022-09-21T11:46:19;543.88;;;260.50;;
18806;SDS011;9531;52.030;4.380;2022-09-21T11:49:03;520.33;;;215.98;;
18806;SDS011;9531;52.030;4.380;2022-09-21T11:51:43;574.75;;;228.02;;
18806;SDS011;9531;52.030;4.380;2022-09-21T11:54:42;572.92;;;224.18;;
18806;SDS011;9531;52.030;4.380;2022-09-21T11:57:26;573.80;;;226.50;;
18806;SDS011;9531;52.030;4.380;2022-09-21T12:05:57;535.85;;;216.73;;
18806;SDS011;9531;52.030;4.380;2022-09-21T12:11:36;563.40;;;225.55;;
18806;SDS011;9531;52.030;4.380;2022-09-21T12:14:11;577.47;;;229.07;;
18806;SDS011;9531;52.030;4.380;2022-09-21T12:16:50;578.05;;;229.77;;
18806;SDS011;9531;52.030;4.380;2022-09-21T12:19:25;577.45;;;230.85;;
18806;SDS011;9531;52.030;4.380;2022-09-21T12:22:01;581.40;;;228.23;;
18806;SDS011;9531;52.030;4.380;2022-09-21T12:24:33;573.28;;;219.50;;
18806;SDS011;9531;52.030;4.380;2022-09-21T12:27:07;573.15;;;227.02;;
18806;SDS011;9531;52.030;4.380;2022-09-21T12:29:40;580.60;;;223.55;;
18806;SDS011;9531;52.030;4.380;2022-09-21T12:32:13;571.20;;;225.75;;
18806;SDS011;9531;52.030;4.380;2022-09-21T12:34:48;571.03;;;215.40;;
18806;SDS011;9531;52.030;4.380;2022-09-21T12:39:54;576.78;;;225.10;;
18806;SDS011;9531;52.030;4.380;2022-09-21T12:42:28;577.38;;;227.82;;
18806;SDS011;9531;52.030;4.380;2022-09-21T12:45:00;562.17;;;223.85;;
18806;SDS011;9531;52.030;4.380;2022-09-21T12:47:40;556.28;;;220.52;;
18806;SDS011;9531;52.030;4.380;2022-09-21T12:50:24;549.53;;;219.15;;
18806;SDS011;9531;52.030;4.380;2022-09-21T12:52:56;543.90;;;222.00;;
18806;SDS011;9531;52.030;4.380;2022-09-21T12:58:18;540.88;;;226.02;;
18806;SDS011;9531;52.030;4.380;2022-09-21T13:00:57;543.17;;;223.75;;
18806;SDS011;9531;52.030;4.380;2022-09-21T13:03:32;552.17;;;231.13;;
18806;SDS011;9531;52.030;4.380;2022-09-21T13:06:10;547.22;;;229.18;;
18806;SDS011;9531;52.030;4.380;2022-09-21T13:08:54;583.42;;;228.57;;
18806;SDS011;9531;52.030;4.380;2022-09-21T13:11:25;544.30;;;231.40;;
18806;SDS011;9531;52.030;4.380;2022-09-21T13:13:55;541.90;;;226.35;;
18806;SDS011;9531;52.030;4.380;2022-09-21T13:16:25;528.22;;;230.30;;
18806;SDS011;9531;52.030;4.380;2022-09-21T13:18:57;507.92;;;226.07;;
18806;SDS011;9531;52.030;4.380;2022-09-21T13:21:27;506.50;;;228.48;;
18806;SDS011;9531;52.030;4.380;2022-09-21T13:23:55;496.23;;;223.02;;
18806;SDS011;9531;52.030;4.380;2022-09-21T13:26:31;499.95;;;220.10;;
18806;SDS011;9531;52.030;4.380;2022-09-21T13:29:02;504.90;;;230.48;;
18806;SDS011;9531;52.030;4.380;2022-09-21T13:31:54;496.85;;;218.95;;
18806;SDS011;9531;52.030;4.380;2022-09-21T13:34:26;488.00;;;219.73;;
18806;SDS011;9531;52.030;4.380;2022-09-21T13:39:54;486.48;;;218.82;;
18806;SDS011;9531;52.030;4.380;2022-09-21T13:43:22;486.67;;;227.35;;
18806;SDS011;9531;52.030;4.380;2022-09-21T13:49:20;471.77;;;225.75;;
18806;SDS011;9531;52.030;4.380;2022-09-21T13:51:53;472.42;;;226.23;;
18806;SDS011;9531;52.030;4.380;2022-09-21T13:54:25;472.80;;;226.02;;
18806;SDS011;9531;52.030;4.380;2022-09-21T13:56:56;469.77;;;226.50;;
18806;SDS011;9531;52.030;4.380;2022-09-21T13:59:28;469.92;;;227.18;;
18806;SDS011;9531;52.030;4.380;2022-09-21T14:01:59;466.08;;;223.90;;
18806;SDS011;9531;52.030;4.380;2022-09-21T14:04:30;462.52;;;229.48;;
18806;SDS011;9531;52.030;4.380;2022-09-21T14:07:03;459.83;;;216.43;;
18806;SDS011;9531;52.030;4.380;2022-09-21T14:09:35;465.98;;;219.40;;
18806;SDS011;9531;52.030;4.380;2022-09-21T14:12:09;491.77;;;226.10;;
18806;SDS011;9531;52.030;4.380;2022-09-21T14:14:44;570.47;;;229.05;;
18806;SDS011;9531;52.030;4.380;2022-09-21T14:23:38;565.95;;;233.40;;
18806;SDS011;9531;52.030;4.380;2022-09-21T14:26:18;534.47;;;234.25;;
18806;SDS011;9531;52.030;4.380;2022-09-21T14:28:57;472.08;;;228.30;;
18806;SDS011;9531;52.030;4.380;2022-09-21T14:31:33;456.80;;;225.38;;
18806;SDS011;9531;52.030;4.380;2022-09-21T14:34:03;446.05;;;225.57;;
18806;SDS011;9531;52.030;4.380;2022-09-21T14:36:38;445.10;;;226.88;;
18806;SDS011;9531;52.030;4.380;2022-09-21T14:39:14;444.58;;;229.88;;
18806;SDS011;9531;52.030;4.380;2022-09-21T14:41:45;435.13;;;221.00;;
18806;SDS011;9531;52.030;4.380;2022-09-21T14:44:19;453.83;;;229.02;;
18806;SDS011;9531;52.030;4.380;2022-09-21T14:46:52;455.77;;;227.40;;
18806;SDS011;9531;52.030;4.380;2022-09-21T14:52:55;465.92;;;229.75;;
18806;SDS011;9531;52.030;4.380;2022-09-21T14:55:49;460.00;;;225.23;;
18806;SDS011;9531;52.030;4.380;2022-09-21T14:58:30;470.13;;;231.82;;
18806;SDS011;9531;52.030;4.380;2022-09-21T15:01:20;456.35;;;225.05;;
18806;SDS011;9531;52.030;4.380;2022-09-21T15:04:17;467.05;;;225.10;;
18806;SDS011;9531;52.030;4.380;2022-09-21T15:07:01;458.50;;;226.95;;
18806;SDS011;9531;52.030;4.380;2022-09-21T15:09:58;449.02;;;224.57;;
18806;SDS011;9531;52.030;4.380;2022-09-21T15:12:58;447.40;;;221.02;;
18806;SDS011;9531;52.030;4.380;2022-09-21T15:15:34;459.05;;;232.85;;
18806;SDS011;9531;52.030;4.380;2022-09-21T15:18:13;449.15;;;233.30;;
18806;SDS011;9531;52.030;4.380;2022-09-21T15:20:49;454.65;;;231.32;;
18806;SDS011;9531;52.030;4.380;2022-09-21T15:23:24;444.15;;;229.18;;
18806;SDS011;9531;52.030;4.380;2022-09-21T15:25:53;450.52;;;234.73;;
18806;SDS011;9531;52.030;4.380;2022-09-21T15:28:25;442.17;;;232.77;;
18806;SDS011;9531;52.030;4.380;2022-09-21T15:31:00;428.85;;;225.55;;
18806;SDS011;9531;52.030;4.380;2022-09-21T15:33:28;429.83;;;229.52;;